Aérodrome :
LOGIN :

S'inscrire | Disclaimer

   EN    FR    IT 

 










Légende :    VFR   VFR Marginal   IFR   IFR Intensif   IFR Très Intensif
Visi : 
Plafond : 
>= 8 km
>= 3000ft
5 à 8 km
1000 à 3000 ft
1500m à 5 km
500 à 1000 ft
800 à 1500m
200 à 500 ft
< 800m
< 200 ft
Symboles :   Orages  Brouillard  Fortes neiges  Fortes précipitations  Vent > 20 kt
SIGMETs :   Divers  Orages  Givrage  Turbulence  Onde Orograph.  Cendres Volcan.






- Altitude de l'aérodrome : 2661 ft
- Code IATA : TEE


DABS - Cheikh Larbi Tebessi

DERNIER METAR :
  • 011700Z 26004KT 9999 FEW040 11/04 Q1016

METARs EXPIRÉS :
  • 011600Z 20006KT 9999 FEW040 13/05 Q1016
  • 011500Z 30006KT 9999 FEW040 15/04 Q1017

TAF TAF DABS
Valide du 01 à 12h jusqu'au 02 à 12h UTC


011100Z 0112/0212 14008KT 9999 FEW033 SCT040
TEMPO 0202/0209 2000 BR SCT008
PROB40
TEMPO 0205/0208 0100 FG



MET'MAP, la Météo Aéronautique d'un coup d'oeil ! - Copyright ORBIFLY Décembre 2007 - Disclaimer

ORBIFLY MET'MAP TEAM :

Programmation & Développement : Alexandra Zaïnal
Sur une idée originale de : Baudouin d'Aumeries
Assistance à la programmation : Marc-Olivier Méhu
Soutien technique & logistique : Manuel Goepfert

Contact : metmap@orbifly.com




SOURCES & CREDITS :

   NOAA